DLH285 EDDF-EDDM
Flight info
| Callsign | DLH285 |
|---|---|
| Flight time | 0h 31m |
| Altitude | 23000 |
| Route | CINDY8S/18 CINDY Z74 HAREM T104 ROKIL ROKIL1A |
| Aircraft | A346/H-SDE2E3FGHIJ3J4J5M1RWXY/LB1D1 |
Departure
| Time | 2026-05-04 10:37 |
|---|---|
| Airport | Frankfurt Main Airport (EDDF) |
Arrival
| Time | 2026-05-04 11:08 |
|---|---|
| Airport | Munich Airport (EDDM) |
| Time | Latitude | Longitude | Altitude | Speed | Heading |
|---|---|---|---|---|---|
| 2026-05-04 10:05 | 50.04752 | 8.56389 | 371 ft | 0 kts | 339° |
| 2026-05-04 10:08 | 50.04743 | 8.56394 | 371 ft | 0 kts | 339° |
| 2026-05-04 10:22 | 50.04729 | 8.56403 | 375 ft | 3 kts | 340° |
| 2026-05-04 10:22 | 50.04704 | 8.56416 | 370 ft | 4 kts | 341° |
| 2026-05-04 10:23 | 50.04679 | 8.56431 | 373 ft | 4 kts | 330° |
| 2026-05-04 10:23 | 50.04667 | 8.56446 | 375 ft | 4 kts | 292° |
| 2026-05-04 10:25 | 50.04659 | 8.56407 | 375 ft | 0 kts | 249° |
| 2026-05-04 10:28 | 50.04659 | 8.56406 | 375 ft | 0 kts | 249° |
| 2026-05-04 10:28 | 50.04654 | 8.56386 | 374 ft | 4 kts | 250° |
| 2026-05-04 10:29 | 50.04641 | 8.56328 | 372 ft | 7 kts | 250° |
| 2026-05-04 10:29 | 50.04618 | 8.56232 | 370 ft | 11 kts | 249° |
| 2026-05-04 10:29 | 50.04586 | 8.56101 | 373 ft | 14 kts | 249° |
| 2026-05-04 10:29 | 50.04536 | 8.55972 | 373 ft | 7 kts | 216° |
| 2026-05-04 10:30 | 50.04481 | 8.55936 | 373 ft | 10 kts | 199° |
| 2026-05-04 10:30 | 50.04402 | 8.55910 | 374 ft | 13 kts | 180° |
| 2026-05-04 10:30 | 50.04308 | 8.55951 | 372 ft | 15 kts | 160° |
| 2026-05-04 10:30 | 50.04249 | 8.55952 | 372 ft | 9 kts | 223° |
| 2026-05-04 10:31 | 50.04218 | 8.55849 | 372 ft | 12 kts | 249° |
| 2026-05-04 10:31 | 50.04185 | 8.55716 | 373 ft | 14 kts | 249° |
| 2026-05-04 10:32 | 50.03874 | 8.54414 | 372 ft | 20 kts | 248° |
| 2026-05-04 10:33 | 50.03798 | 8.54214 | 373 ft | 22 kts | 249° |
| 2026-05-04 10:33 | 50.03741 | 8.53978 | 372 ft | 24 kts | 249° |
| 2026-05-04 10:33 | 50.03680 | 8.53722 | 374 ft | 26 kts | 249° |
| 2026-05-04 10:33 | 50.03612 | 8.53452 | 372 ft | 23 kts | 249° |
| 2026-05-04 10:34 | 50.03555 | 8.53212 | 370 ft | 24 kts | 250° |
| 2026-05-04 10:34 | 50.03499 | 8.52973 | 372 ft | 21 kts | 250° |
| 2026-05-04 10:34 | 50.03447 | 8.52779 | 374 ft | 18 kts | 248° |
| 2026-05-04 10:34 | 50.03397 | 8.52620 | 377 ft | 14 kts | 221° |
| 2026-05-04 10:35 | 50.03349 | 8.52595 | 374 ft | 0 kts | 181° |
| 2026-05-04 10:35 | 50.03348 | 8.52595 | 374 ft | 0 kts | 181° |
| 2026-05-04 10:36 | 50.03263 | 8.52594 | 375 ft | 48 kts | 180° |
| 2026-05-04 10:36 | 50.02601 | 8.52601 | 375 ft | 138 kts | 180° |
| 2026-05-04 10:37 | 50.01395 | 8.52621 | 519 ft | 197 kts | 178° |
| 2026-05-04 10:37 | 50.00015 | 8.52651 | 1564 ft | 198 kts | 179° |
| 2026-05-04 10:37 | 49.98662 | 8.52676 | 2617 ft | 191 kts | 179° |
| 2026-05-04 10:37 | 49.97337 | 8.52720 | 3459 ft | 191 kts | 176° |
| 2026-05-04 10:39 | 49.93741 | 8.65349 | 6663 ft | 274 kts | 90° |
| 2026-05-04 10:39 | 49.93574 | 8.68335 | 7440 ft | 281 kts | 108° |
| 2026-05-04 10:39 | 49.92554 | 8.70903 | 8344 ft | 282 kts | 138° |
| 2026-05-04 10:40 | 49.90985 | 8.72748 | 9275 ft | 284 kts | 146° |
| 2026-05-04 10:40 | 49.89382 | 8.74585 | 10116 ft | 289 kts | 139° |
| 2026-05-04 10:40 | 49.87990 | 8.76910 | 10796 ft | 301 kts | 127° |
| 2026-05-04 10:40 | 49.86839 | 8.79735 | 11269 ft | 319 kts | 120° |
| 2026-05-04 10:41 | 49.85743 | 8.82782 | 11703 ft | 336 kts | 119° |
| 2026-05-04 10:41 | 49.84570 | 8.86082 | 12197 ft | 352 kts | 119° |
| 2026-05-04 10:41 | 49.83365 | 8.89446 | 12933 ft | 358 kts | 120° |
| 2026-05-04 10:41 | 49.82146 | 8.92828 | 13789 ft | 362 kts | 120° |
| 2026-05-04 10:42 | 49.81325 | 8.95095 | 14333 ft | 364 kts | 120° |
| 2026-05-04 10:42 | 49.80074 | 8.98537 | 15113 ft | 369 kts | 120° |
| 2026-05-04 10:42 | 49.78802 | 9.02029 | 15884 ft | 373 kts | 120° |
| 2026-05-04 10:42 | 49.77531 | 9.05554 | 16623 ft | 377 kts | 118° |
| 2026-05-04 10:43 | 49.76115 | 9.10512 | 17583 ft | 383 kts | 110° |
| 2026-05-04 10:44 | 49.66123 | 9.33916 | 21991 ft | 410 kts | 131° |
| 2026-05-04 10:45 | 49.64230 | 9.37239 | 22596 ft | 413 kts | 131° |
| 2026-05-04 10:45 | 49.62322 | 9.40594 | 23202 ft | 417 kts | 131° |
| 2026-05-04 10:45 | 49.60401 | 9.43976 | 23744 ft | 421 kts | 131° |
| 2026-05-04 10:45 | 49.58463 | 9.47388 | 23988 ft | 423 kts | 131° |
| 2026-05-04 10:46 | 49.56526 | 9.50794 | 23991 ft | 423 kts | 131° |
| 2026-05-04 10:46 | 49.54583 | 9.54204 | 23997 ft | 423 kts | 131° |
| 2026-05-04 10:46 | 49.52636 | 9.57616 | 23999 ft | 423 kts | 131° |
| 2026-05-04 10:46 | 49.50695 | 9.61012 | 23999 ft | 423 kts | 131° |
| 2026-05-04 10:47 | 49.48749 | 9.64412 | 24000 ft | 423 kts | 131° |
| 2026-05-04 10:47 | 49.46805 | 9.67803 | 23999 ft | 422 kts | 131° |
| 2026-05-04 10:47 | 49.44861 | 9.71191 | 24000 ft | 423 kts | 131° |
| 2026-05-04 10:47 | 49.42910 | 9.74584 | 24000 ft | 423 kts | 131° |
| 2026-05-04 10:49 | 49.28170 | 10.00047 | 24000 ft | 469 kts | 132° |
| 2026-05-04 10:49 | 49.25992 | 10.03786 | 24000 ft | 469 kts | 132° |
| 2026-05-04 10:50 | 49.23819 | 10.07512 | 23999 ft | 469 kts | 132° |
| 2026-05-04 10:51 | 49.08401 | 10.33344 | 23999 ft | 469 kts | 134° |
| 2026-05-04 10:52 | 49.06142 | 10.36948 | 23999 ft | 469 kts | 134° |
| 2026-05-04 10:52 | 49.03888 | 10.40549 | 24000 ft | 469 kts | 134° |
| 2026-05-04 10:52 | 49.01637 | 10.44153 | 23999 ft | 469 kts | 134° |
| 2026-05-04 10:54 | 48.86301 | 10.68571 | 22797 ft | 447 kts | 134° |
| 2026-05-04 10:54 | 48.84153 | 10.71971 | 22405 ft | 444 kts | 134° |
| 2026-05-04 10:56 | 48.66639 | 10.89145 | 18725 ft | 420 kts | 154° |
| 2026-05-04 10:56 | 48.64024 | 10.91103 | 18094 ft | 417 kts | 154° |
| 2026-05-04 10:56 | 48.61440 | 10.93036 | 17373 ft | 412 kts | 154° |
| 2026-05-04 10:57 | 48.58884 | 10.94947 | 16595 ft | 408 kts | 154° |
| 2026-05-04 10:57 | 48.56373 | 10.96825 | 15786 ft | 396 kts | 154° |
| 2026-05-04 10:57 | 48.53945 | 10.98639 | 15025 ft | 384 kts | 154° |
| 2026-05-04 10:57 | 48.51579 | 11.00406 | 14275 ft | 373 kts | 154° |
| 2026-05-04 10:58 | 48.49278 | 11.02125 | 13512 ft | 364 kts | 154° |
| 2026-05-04 10:58 | 48.47032 | 11.03801 | 12747 ft | 356 kts | 154° |
| 2026-05-04 10:58 | 48.44851 | 11.05429 | 12222 ft | 342 kts | 154° |
| 2026-05-04 10:58 | 48.42755 | 11.06993 | 11700 ft | 330 kts | 154° |
| 2026-05-04 10:59 | 48.40738 | 11.08498 | 11197 ft | 318 kts | 154° |
| 2026-05-04 10:59 | 48.38785 | 11.09954 | 10694 ft | 309 kts | 154° |
| 2026-05-04 10:59 | 48.36890 | 11.11367 | 10188 ft | 300 kts | 154° |
| 2026-05-04 10:59 | 48.35045 | 11.12742 | 9687 ft | 292 kts | 154° |
| 2026-05-04 11:00 | 48.33278 | 11.14060 | 9304 ft | 282 kts | 154° |
| 2026-05-04 11:01 | 48.30692 | 11.30279 | 7313 ft | 248 kts | 81° |
| 2026-05-04 11:02 | 48.30924 | 11.32816 | 6989 ft | 244 kts | 82° |
| 2026-05-04 11:02 | 48.31128 | 11.35330 | 6655 ft | 240 kts | 83° |
| 2026-05-04 11:05 | 48.33254 | 11.64818 | 2826 ft | 171 kts | 81° |
| 2026-05-04 11:06 | 48.33413 | 11.66559 | 2584 ft | 166 kts | 82° |
| 2026-05-04 11:06 | 48.33533 | 11.68257 | 2369 ft | 165 kts | 83° |
| 2026-05-04 11:06 | 48.33660 | 11.69946 | 2170 ft | 162 kts | 82° |
| 2026-05-04 11:06 | 48.33801 | 11.71647 | 1994 ft | 164 kts | 83° |
| 2026-05-04 11:08 | 48.34459 | 11.79208 | 1480 ft | 24 kts | 53° |
| 2026-05-04 11:10 | 48.34859 | 11.79693 | 1486 ft | 19 kts | 354° |
| 2026-05-04 11:12 | 48.35496 | 11.79583 | 1485 ft | 4 kts | 6° |
| 2026-05-04 11:12 | 48.35515 | 11.79611 | 1477 ft | 5 kts | 65° |
| 2026-05-04 11:12 | 48.35525 | 11.79669 | 1484 ft | 0 kts | 79° |
| 2026-05-04 11:12 | 48.35528 | 11.79687 | 1483 ft | 4 kts | 79° |
| 2026-05-04 11:13 | 48.35530 | 11.79709 | 1482 ft | 1 kts | 83° |
| 2026-05-04 11:13 | 48.35530 | 11.79714 | 1482 ft | 0 kts | 83° |